Time,TemperatureF,DewpointF,PressureIn,WindDirection,WindDirectionDegrees,WindSpeedMPH,WindSpeedGustMPH,Humidity,HourlyPrecipIn,Conditions,Clouds,dailyrainin,SoftwareType,DateUTC
2013-01-18 00:00:00,52.5,45.1,30.14,North,0,2.0,8.0,76,0.00,,,0.00,meteohub,2013-01-18 05:00:00,
2013-01-18 00:01:00,52.5,45.1,30.13,South,180,2.0,11.0,76,0.00,,,0.00,meteohub,2013-01-18 05:01:00,
2013-01-18 00:03:00,52.5,45.1,30.13,North,0,2.0,11.0,76,0.00,,,0.00,meteohub,2013-01-18 05:03:00,
2013-01-18 00:04:00,52.5,45.1,30.13,NE,45,6.0,11.0,76,0.00,,,0.00,meteohub,2013-01-18 05:04:00,
2013-01-18 00:09:00,52.3,44.6,30.14,West,270,3.0,11.0,75,0.00,,,0.00,meteohub,2013-01-18 05:09:00,
2013-01-18 00:14:00,52.0,43.5,30.14,NW,315,9.0,9.0,73,0.00,,,0.00,meteohub,2013-01-18 05:14:00,
2013-01-18 00:19:00,51.6,43.5,30.14,North,0,7.0,9.0,74,0.00,,,0.00,meteohub,2013-01-18 05:19:00,
2013-01-18 00:24:00,51.3,43.3,30.14,SE,135,6.0,9.0,74,0.00,,,0.00,meteohub,2013-01-18 05:24:00,
2013-01-18 00:29:00,50.9,43.3,30.14,SW,225,2.0,9.0,75,0.00,,,0.00,meteohub,2013-01-18 05:29:00,
2013-01-18 00:34:00,50.5,43.3,30.15,North,0,4.0,9.0,76,0.00,,,0.00,meteohub,2013-01-18 05:34:00,
2013-01-18 00:39:00,50.4,43.2,30.15,North,0,3.0,6.0,76,0.00,,,0.00,meteohub,2013-01-18 05:39:00,
2013-01-18 00:44:00,50.2,43.0,30.15,North,0,4.0,12.0,76,0.00,,,0.00,meteohub,2013-01-18 05:44:00,
2013-01-18 00:49:00,50.2,43.0,30.15,NW,315,4.0,12.0,76,0.00,,,0.00,meteohub,2013-01-18 05:49:00,
2013-01-18 00:54:00,49.6,42.1,30.16,NW,315,7.0,11.0,75,0.00,,,0.00,meteohub,2013-01-18 05:54:00,
2013-01-18 00:59:00,49.3,41.4,30.16,NE,45,6.0,11.0,74,0.00,,,0.00,meteohub,2013-01-18 05:59:00,
2013-01-18 01:04:00,49.1,41.2,30.16,North,0,5.0,7.0,74,0.00,,,0.00,meteohub,2013-01-18 06:04:00,
2013-01-18 01:09:00,48.2,39.9,30.17,NW,315,6.0,7.0,73,0.00,,,0.00,meteohub,2013-01-18 06:09:00,
2013-01-18 01:14:00,47.8,39.9,30.17,NW,315,2.0,7.0,74,0.00,,,0.00,meteohub,2013-01-18 06:14:00,
2013-01-18 01:19:00,47.7,40.1,30.17,SW,225,2.0,6.0,75,0.00,,,0.00,meteohub,2013-01-18 06:19:00,
2013-01-18 01:24:00,47.3,39.7,30.16,NE,45,4.0,8.0,75,0.00,,,0.00,meteohub,2013-01-18 06:24:00,
2013-01-18 01:29:00,46.9,39.4,30.17,West,270,5.0,8.0,75,0.00,,,0.00,meteohub,2013-01-18 06:29:00,
2013-01-18 01:35:00,46.8,39.2,30.17,North,0,4.0,8.0,75,0.00,,,0.00,meteohub,2013-01-18 06:35:00,
2013-01-18 01:40:00,46.4,38.8,30.17,SW,225,4.0,7.0,75,0.00,,,0.00,meteohub,2013-01-18 06:40:00,
2013-01-18 01:45:00,46.2,39.0,30.17,North,0,4.0,7.0,76,0.00,,,0.00,meteohub,2013-01-18 06:45:00,
2013-01-18 01:50:00,45.7,37.9,30.18,South,180,2.0,7.0,74,0.00,,,0.00,meteohub,2013-01-18 06:50:00,
2013-01-18 01:55:00,45.5,37.8,30.18,South,180,7.0,8.0,74,0.00,,,0.00,meteohub,2013-01-18 06:55:00,
2013-01-18 02:00:00,45.1,37.4,30.19,NW,315,5.0,8.0,74,0.00,,,0.00,meteohub,2013-01-18 07:00:00,
2013-01-18 02:05:00,45.0,37.6,30.18,NW,315,5.0,8.0,75,0.00,,,0.00,meteohub,2013-01-18 07:05:00,
2013-01-18 02:10:00,44.8,37.4,30.19,NNW,338,3.0,7.0,75,0.00,,,0.00,meteohub,2013-01-18 07:10:00,
2013-01-18 02:15:00,44.4,37.4,30.19,NW,315,3.0,8.0,76,0.00,,,0.00,meteohub,2013-01-18 07:15:00,
2013-01-18 02:20:00,44.2,37.2,30.19,North,0,7.0,8.0,76,0.00,,,0.00,meteohub,2013-01-18 07:20:00,
2013-01-18 02:25:00,44.1,37.0,30.19,SW,225,4.0,8.0,76,0.00,,,0.00,meteohub,2013-01-18 07:25:00,
2013-01-18 02:30:00,43.9,36.9,30.19,North,0,2.0,7.0,76,0.00,,,0.00,meteohub,2013-01-18 07:30:00,
2013-01-18 02:35:00,43.9,37.2,30.19,NW,315,3.0,7.0,77,0.00,,,0.00,meteohub,2013-01-18 07:35:00,
2013-01-18 02:40:00,43.7,37.0,30.19,NW,315,2.0,4.0,77,0.00,,,0.00,meteohub,2013-01-18 07:40:00,
2013-01-18 02:45:00,43.5,36.9,30.19,NW,315,3.0,6.0,77,0.00,,,0.00,meteohub,2013-01-18 07:45:00,
2013-01-18 02:50:00,43.3,36.7,30.19,NW,315,2.0,6.0,77,0.00,,,0.00,meteohub,2013-01-18 07:50:00,
2013-01-18 02:55:00,43.2,36.5,30.19,North,0,2.0,4.0,77,0.00,,,0.00,meteohub,2013-01-18 07:55:00,
2013-01-18 03:00:00,43.0,36.7,30.20,North,0,2.0,4.0,78,0.00,,,0.00,meteohub,2013-01-18 08:00:00,
2013-01-18 03:05:00,43.0,36.7,30.19,North,0,2.0,4.0,78,0.00,,,0.00,meteohub,2013-01-18 08:05:00,
2013-01-18 03:11:00,42.8,36.5,30.20,ENE,68,2.0,4.0,78,0.00,,,0.00,meteohub,2013-01-18 08:11:00,
2013-01-18 03:16:00,42.6,36.5,30.20,North,0,4.0,4.0,79,0.00,,,0.00,meteohub,2013-01-18 08:16:00,
2013-01-18 03:21:00,42.6,36.9,30.19,North,0,2.0,4.0,80,0.00,,,0.00,meteohub,2013-01-18 08:21:00,
2013-01-18 03:26:00,42.4,36.7,30.20,NW,315,4.0,5.0,80,0.00,,,0.00,meteohub,2013-01-18 08:26:00,
2013-01-18 03:31:00,42.3,36.5,30.20,North,0,2.0,5.0,80,0.00,,,0.00,meteohub,2013-01-18 08:31:00,
2013-01-18 03:36:00,42.1,36.3,30.20,East,90,3.0,4.0,80,0.00,,,0.00,meteohub,2013-01-18 08:36:00,
2013-01-18 03:41:00,42.1,36.7,30.20,West,270,2.0,4.0,81,0.00,,,0.00,meteohub,2013-01-18 08:41:00,
2013-01-18 03:46:00,42.1,36.3,30.20,NW,315,3.0,6.0,80,0.00,,,0.00,meteohub,2013-01-18 08:46:00,
2013-01-18 03:51:00,41.9,36.5,30.20,North,0,4.0,6.0,81,0.00,,,0.00,meteohub,2013-01-18 08:51:00,
2013-01-18 03:56:00,41.9,36.1,30.21,North,0,3.0,6.0,80,0.00,,,0.00,meteohub,2013-01-18 08:56:00,
2013-01-18 04:01:00,41.7,36.0,30.21,NW,315,4.0,4.0,80,0.00,,,0.00,meteohub,2013-01-18 09:01:00,
2013-01-18 04:06:00,41.7,36.0,30.21,North,0,2.0,4.0,80,0.00,,,0.00,meteohub,2013-01-18 09:06:00,
2013-01-18 04:11:00,41.7,36.0,30.21,North,0,2.0,4.0,80,0.00,,,0.00,meteohub,2013-01-18 09:11:00,
2013-01-18 04:16:00,41.5,35.8,30.21,NW,315,2.0,4.0,80,0.00,,,0.00,meteohub,2013-01-18 09:16:00,
2013-01-18 04:21:00,41.5,35.8,30.21,NW,315,1.0,4.0,80,0.00,,,0.00,meteohub,2013-01-18 09:21:00,
2013-01-18 04:26:00,41.4,36.0,30.21,NW,315,3.0,4.0,81,0.00,,,0.00,meteohub,2013-01-18 09:26:00,
2013-01-18 04:31:00,41.4,36.0,30.22,North,0,4.0,4.0,81,0.00,,,0.00,meteohub,2013-01-18 09:31:00,
2013-01-18 04:36:00,41.2,35.8,30.22,NW,315,2.0,4.0,81,0.00,,,0.00,meteohub,2013-01-18 09:36:00,
2013-01-18 04:41:00,41.2,35.8,30.21,North,0,2.0,4.0,81,0.00,,,0.00,meteohub,2013-01-18 09:41:00,
2013-01-18 04:46:00,41.2,36.1,30.21,North,0,1.0,4.0,82,0.00,,,0.00,meteohub,2013-01-18 09:46:00,
2013-01-18 04:51:00,41.0,36.0,30.22,North,0,2.0,3.0,82,0.00,,,0.00,meteohub,2013-01-18 09:51:00,
2013-01-18 04:56:00,41.0,36.0,30.22,SE,135,2.0,2.0,82,0.00,,,0.00,meteohub,2013-01-18 09:56:00,
2013-01-18 05:02:00,40.8,36.3,30.22,West,270,1.0,2.0,84,0.00,,,0.00,meteohub,2013-01-18 10:02:00,
2013-01-18 05:07:00,40.8,36.3,30.22,West,270,1.0,2.0,84,0.00,,,0.00,meteohub,2013-01-18 10:07:00,
2013-01-18 05:12:00,40.6,36.1,30.22,North,0,2.0,2.0,84,0.00,,,0.00,meteohub,2013-01-18 10:12:00,
2013-01-18 05:17:00,40.6,36.1,30.22,NE,45,1.0,2.0,84,0.00,,,0.00,meteohub,2013-01-18 10:17:00,
2013-01-18 05:22:00,40.6,36.1,30.23,NW,315,1.0,2.0,84,0.00,,,0.00,meteohub,2013-01-18 10:22:00,
2013-01-18 05:27:00,40.6,36.5,30.22,North,0,2.0,2.0,85,0.00,,,0.00,meteohub,2013-01-18 10:27:00,
2013-01-18 05:32:00,40.6,36.5,30.23,NE,45,2.0,2.0,85,0.00,,,0.00,meteohub,2013-01-18 10:32:00,
2013-01-18 05:37:00,40.5,36.3,30.23,North,0,0.0,3.0,85,0.00,,,0.00,meteohub,2013-01-18 10:37:00,
2013-01-18 05:42:00,40.5,36.3,30.23,NW,315,0.0,3.0,85,0.00,,,0.00,meteohub,2013-01-18 10:42:00,
2013-01-18 05:47:00,40.6,36.5,30.23,NW,315,2.0,2.0,85,0.00,,,0.00,meteohub,2013-01-18 10:47:00,
2013-01-18 05:52:00,41.0,36.9,30.24,NW,315,1.0,2.0,85,0.00,,,0.00,meteohub,2013-01-18 10:52:00,
2013-01-18 05:57:00,41.4,37.2,30.23,NW,315,1.0,2.0,85,0.00,,,0.00,meteohub,2013-01-18 10:57:00,
2013-01-18 06:02:00,41.7,37.6,30.24,North,0,2.0,3.0,85,0.00,,,0.00,meteohub,2013-01-18 11:02:00,
2013-01-18 06:07:00,41.9,37.8,30.23,West,270,2.0,3.0,85,0.00,,,0.00,meteohub,2013-01-18 11:07:00,
2013-01-18 06:12:00,42.3,38.1,30.23,North,0,2.0,3.0,85,0.00,,,0.00,meteohub,2013-01-18 11:12:00,
2013-01-18 06:17:00,42.4,37.9,30.24,NW,315,1.0,2.0,84,0.00,,,0.00,meteohub,2013-01-18 11:17:00,
2013-01-18 06:22:00,42.6,38.1,30.24,NW,315,2.0,4.0,84,0.00,,,0.00,meteohub,2013-01-18 11:22:00,
2013-01-18 06:27:00,42.8,37.9,30.24,SE,135,2.0,4.0,83,0.00,,,0.00,meteohub,2013-01-18 11:27:00,
2013-01-18 06:32:00,43.0,38.1,30.25,NW,315,2.0,4.0,83,0.00,,,0.00,meteohub,2013-01-18 11:32:00,
2013-01-18 06:37:00,43.2,38.3,30.25,NW,315,2.0,3.0,83,0.00,,,0.00,meteohub,2013-01-18 11:37:00,
2013-01-18 06:42:00,43.3,38.3,30.25,NW,315,4.0,4.0,82,0.00,,,0.00,meteohub,2013-01-18 11:42:00,
2013-01-18 06:47:00,43.3,38.3,30.25,North,0,2.0,4.0,82,0.00,,,0.00,meteohub,2013-01-18 11:47:00,
2013-01-18 06:52:00,43.5,38.5,30.25,North,0,2.0,4.0,82,0.00,,,0.00,meteohub,2013-01-18 11:52:00,
2013-01-18 06:57:00,43.7,38.5,30.25,West,270,2.0,4.0,82,0.00,,,0.00,meteohub,2013-01-18 11:57:00,
2013-01-18 07:02:00,43.9,38.7,30.25,SW,225,2.0,4.0,82,0.00,,,0.00,meteohub,2013-01-18 12:02:00,
2013-01-18 07:07:00,43.9,38.7,30.25,NW,315,1.0,4.0,82,0.00,,,0.00,meteohub,2013-01-18 12:07:00,
2013-01-18 07:12:00,44.1,38.8,30.25,NNW,338,1.0,4.0,82,0.00,,,0.00,meteohub,2013-01-18 12:12:00,
2013-01-18 07:17:00,44.1,38.8,30.25,North,0,2.0,3.0,82,0.00,,,0.00,meteohub,2013-01-18 12:17:00,
2013-01-18 07:22:00,44.2,39.0,30.26,SW,225,2.0,3.0,82,0.00,,,0.00,meteohub,2013-01-18 12:22:00,
2013-01-18 07:27:00,44.2,39.0,30.26,NW,315,1.0,2.0,82,0.00,,,0.00,meteohub,2013-01-18 12:27:00,
2013-01-18 07:32:00,44.2,39.0,30.26,NE,45,2.0,2.0,82,0.00,,,0.00,meteohub,2013-01-18 12:32:00,
2013-01-18 07:37:00,44.4,39.2,30.26,NW,315,3.0,3.0,82,0.00,,,0.00,meteohub,2013-01-18 12:37:00,
2013-01-18 07:42:00,44.6,39.2,30.26,NW,315,2.0,3.0,81,0.00,,,0.00,meteohub,2013-01-18 12:42:00,
2013-01-18 07:47:00,44.6,39.2,30.27,NW,315,2.0,3.0,81,0.00,,,0.00,meteohub,2013-01-18 12:47:00,
2013-01-18 07:52:00,44.8,39.6,30.26,West,270,2.0,3.0,82,0.00,,,0.00,meteohub,2013-01-18 12:52:00,
2013-01-18 07:58:00,44.6,39.2,30.26,NNW,338,2.0,2.0,81,0.00,,,0.00,meteohub,2013-01-18 12:58:00,
2013-01-18 08:03:00,44.8,39.4,30.26,North,0,2.0,2.0,81,0.00,,,0.00,meteohub,2013-01-18 13:03:00,
2013-01-18 08:08:00,44.8,39.6,30.27,NW,315,1.0,3.0,82,0.00,,,0.00,meteohub,2013-01-18 13:08:00,
2013-01-18 08:13:00,45.0,39.7,30.27,South,180,2.0,3.0,82,0.00,,,0.00,meteohub,2013-01-18 13:13:00,
2013-01-18 08:18:00,45.0,39.6,30.27,West,270,2.0,2.0,81,0.00,,,0.00,meteohub,2013-01-18 13:18:00,
2013-01-18 08:23:00,45.0,39.6,30.27,North,0,2.0,3.0,81,0.00,,,0.00,meteohub,2013-01-18 13:23:00,
2013-01-18 08:28:00,45.0,39.6,30.27,North,0,2.0,3.0,81,0.00,,,0.00,meteohub,2013-01-18 13:28:00,
2013-01-18 08:33:00,45.1,39.7,30.27,NW,315,0.0,3.0,81,0.00,,,0.00,meteohub,2013-01-18 13:33:00,
2013-01-18 08:38:00,45.3,40.1,30.28,NW,315,2.0,3.0,82,0.00,,,0.00,meteohub,2013-01-18 13:38:00,
2013-01-18 08:43:00,45.5,40.1,30.28,North,0,4.0,4.0,81,0.00,,,0.00,meteohub,2013-01-18 13:43:00,
2013-01-18 08:48:00,45.7,40.1,30.29,NW,315,2.0,4.0,81,0.00,,,0.00,meteohub,2013-01-18 13:48:00,
2013-01-18 08:53:00,45.9,40.3,30.29,North,0,3.0,4.0,81,0.00,,,0.00,meteohub,2013-01-18 13:53:00,
2013-01-18 08:58:00,46.0,40.5,30.28,SW,225,2.0,4.0,81,0.00,,,0.00,meteohub,2013-01-18 13:58:00,
2013-01-18 09:03:00,46.0,40.5,30.28,North,0,2.0,3.0,81,0.00,,,0.00,meteohub,2013-01-18 14:03:00,
2013-01-18 09:08:00,46.4,40.8,30.29,NW,315,2.0,3.0,81,0.00,,,0.00,meteohub,2013-01-18 14:08:00,
2013-01-18 09:13:00,46.8,41.2,30.29,North,0,3.0,3.0,81,0.00,,,0.00,meteohub,2013-01-18 14:13:00,
2013-01-18 09:18:00,47.1,41.5,30.30,West,270,2.0,3.0,81,0.00,,,0.00,meteohub,2013-01-18 14:18:00,
2013-01-18 09:23:00,47.3,41.4,30.30,West,270,4.0,4.0,80,0.00,,,0.00,meteohub,2013-01-18 14:23:00,
2013-01-18 09:28:00,47.3,41.4,30.29,West,270,3.0,4.0,80,0.00,,,0.00,meteohub,2013-01-18 14:28:00,
2013-01-18 09:33:00,47.7,42.1,30.30,SW,225,2.0,4.0,81,0.00,,,0.00,meteohub,2013-01-18 14:33:00,
2013-01-18 09:38:00,48.2,42.3,30.30,SW,225,2.0,4.0,80,0.00,,,0.00,meteohub,2013-01-18 14:38:00,
2013-01-18 09:43:00,48.7,42.8,30.30,NE,45,2.0,5.0,80,0.00,,,0.00,meteohub,2013-01-18 14:43:00,
2013-01-18 09:48:00,49.3,43.3,30.30,North,0,3.0,5.0,80,0.00,,,0.00,meteohub,2013-01-18 14:48:00,
2013-01-18 09:54:00,49.5,43.2,30.30,NW,315,4.0,5.0,79,0.00,,,0.00,meteohub,2013-01-18 14:54:00,
2013-01-18 09:59:00,49.5,43.2,30.30,South,180,3.0,4.0,79,0.00,,,0.00,meteohub,2013-01-18 14:59:00,
2013-01-18 10:04:00,49.8,44.2,30.30,NE,45,3.0,4.0,81,0.00,,,0.00,meteohub,2013-01-18 15:04:00,
2013-01-18 10:09:00,50.0,43.7,30.30,North,0,3.0,4.0,79,0.00,,,0.00,meteohub,2013-01-18 15:09:00,
2013-01-18 10:14:00,50.2,43.9,30.30,North,0,2.0,3.0,79,0.00,,,0.00,meteohub,2013-01-18 15:14:00,
2013-01-18 10:19:00,50.5,44.6,30.30,SW,225,4.0,4.0,80,0.00,,,0.00,meteohub,2013-01-18 15:19:00,
2013-01-18 10:24:00,51.1,44.8,30.30,North,0,2.0,3.0,79,0.00,,,0.00,meteohub,2013-01-18 15:24:00,
2013-01-18 10:29:00,51.6,45.3,30.30,NW,315,1.0,4.0,79,0.00,,,0.00,meteohub,2013-01-18 15:29:00,
2013-01-18 10:34:00,52.5,45.9,30.30,NNW,338,2.0,4.0,78,0.00,,,0.00,meteohub,2013-01-18 15:34:00,
2013-01-18 10:39:00,53.4,46.8,30.30,NNW,338,3.0,4.0,78,0.00,,,0.00,meteohub,2013-01-18 15:39:00,
2013-01-18 10:44:00,54.3,46.9,30.30,West,270,3.0,4.0,76,0.00,,,0.00,meteohub,2013-01-18 15:44:00,
2013-01-18 10:49:00,55.2,47.5,30.30,NW,315,4.0,4.0,75,0.00,,,0.00,meteohub,2013-01-18 15:49:00,
2013-01-18 10:54:00,55.6,47.8,30.29,West,270,2.0,4.0,75,0.00,,,0.00,meteohub,2013-01-18 15:54:00,
2013-01-18 10:59:00,55.9,48.6,30.30,NE,45,4.0,4.0,76,0.00,,,0.00,meteohub,2013-01-18 15:59:00,
2013-01-18 11:04:00,55.9,48.2,30.29,West,270,2.0,4.0,75,0.00,,,0.00,meteohub,2013-01-18 16:04:00,
2013-01-18 11:09:00,55.9,48.9,30.29,North,0,4.0,4.0,77,0.00,,,0.00,meteohub,2013-01-18 16:09:00,
2013-01-18 11:14:00,56.3,49.5,30.29,North,0,4.0,4.0,78,0.00,,,0.00,meteohub,2013-01-18 16:14:00,
2013-01-18 11:19:00,56.8,50.0,30.29,NW,315,2.0,4.0,78,0.00,,,0.00,meteohub,2013-01-18 16:19:00,
2013-01-18 11:24:00,57.7,50.9,30.28,North,0,3.0,4.0,78,0.00,,,0.00,meteohub,2013-01-18 16:24:00,
2013-01-18 11:29:00,58.5,52.0,30.28,North,0,2.0,4.0,79,0.00,,,0.00,meteohub,2013-01-18 16:29:00,
2013-01-18 11:34:00,59.0,52.5,30.28,West,270,3.0,4.0,79,0.00,,,0.00,meteohub,2013-01-18 16:34:00,
2013-01-18 11:40:00,59.2,52.7,30.28,SW,225,2.0,4.0,79,0.00,,,0.00,meteohub,2013-01-18 16:40:00,
2013-01-18 11:45:00,59.2,53.1,30.28,North,0,3.0,4.0,80,0.00,,,0.00,meteohub,2013-01-18 16:45:00,
2013-01-18 11:50:00,59.2,53.4,30.28,NE,45,2.0,4.0,81,0.00,,,0.00,meteohub,2013-01-18 16:50:00,
2013-01-18 11:55:00,59.2,54.0,30.27,North,0,3.0,4.0,83,0.00,,,0.00,meteohub,2013-01-18 16:55:00,
2013-01-18 12:00:00,59.2,54.3,30.27,NW,315,3.0,4.0,84,0.00,,,0.00,meteohub,2013-01-18 17:00:00,
2013-01-18 12:05:00,59.0,54.9,30.27,North,0,2.0,4.0,86,0.00,,,0.00,meteohub,2013-01-18 17:05:00,
2013-01-18 12:10:00,59.0,55.2,30.27,North,0,2.0,4.0,87,0.00,,,0.00,meteohub,2013-01-18 17:10:00,
2013-01-18 12:15:00,58.6,55.8,30.27,NE,45,2.0,4.0,90,0.00,,,0.00,meteohub,2013-01-18 17:15:00,
2013-01-18 12:20:00,58.5,56.1,30.27,NW,315,3.0,4.0,92,0.00,,,0.00,meteohub,2013-01-18 17:20:00,
2013-01-18 12:25:00,58.5,56.5,30.27,NE,45,2.0,4.0,93,0.00,,,0.00,meteohub,2013-01-18 17:25:00,
2013-01-18 12:30:00,58.8,57.4,30.26,North,0,2.0,4.0,95,0.00,,,0.00,meteohub,2013-01-18 17:30:00,
2013-01-18 12:35:00,59.0,57.6,30.26,NW,315,2.0,4.0,95,0.00,,,0.00,meteohub,2013-01-18 17:35:00,
2013-01-18 12:40:00,59.4,57.9,30.26,North,0,2.0,4.0,95,0.00,,,0.00,meteohub,2013-01-18 17:40:00,
2013-01-18 12:45:00,59.5,58.1,30.26,NE,45,4.0,4.0,95,0.00,,,0.00,meteohub,2013-01-18 17:45:00,
2013-01-18 12:50:00,59.9,58.8,30.25,North,0,2.0,4.0,96,0.00,,,0.00,meteohub,2013-01-18 17:50:00,
2013-01-18 12:55:00,60.6,59.5,30.25,SE,135,2.0,4.0,96,0.00,,,0.00,meteohub,2013-01-18 17:55:00,
2013-01-18 13:00:00,61.3,59.9,30.25,NW,315,2.0,4.0,95,0.00,,,0.00,meteohub,2013-01-18 18:00:00,
2013-01-18 13:05:00,61.9,60.4,30.24,North,0,4.0,4.0,95,0.00,,,0.00,meteohub,2013-01-18 18:05:00,
2013-01-18 13:11:00,62.6,60.6,30.24,West,270,2.0,4.0,93,0.00,,,0.00,meteohub,2013-01-18 18:11:00,
2013-01-18 13:16:00,64.6,62.2,30.24,South,180,5.0,5.0,92,0.00,,,0.00,meteohub,2013-01-18 18:16:00,
2013-01-18 13:21:00,65.5,61.2,30.24,NNE,23,4.0,5.0,86,0.00,,,0.00,meteohub,2013-01-18 18:21:00,
2013-01-18 13:26:00,65.3,58.3,30.24,ENE,68,2.0,8.0,78,0.00,,,0.00,meteohub,2013-01-18 18:26:00,
2013-01-18 13:31:00,65.3,58.3,30.24,North,0,6.0,8.0,78,0.00,,,0.00,meteohub,2013-01-18 18:31:00,
2013-01-18 13:36:00,66.0,58.3,30.23,SW,225,5.0,8.0,76,0.00,,,0.00,meteohub,2013-01-18 18:36:00,
2013-01-18 13:41:00,65.8,57.0,30.23,NNE,23,4.0,8.0,73,0.00,,,0.00,meteohub,2013-01-18 18:41:00,
2013-01-18 13:46:00,65.8,57.7,30.23,NE,45,4.0,8.0,75,0.00,,,0.00,meteohub,2013-01-18 18:46:00,
2013-01-18 13:51:00,66.0,57.2,30.23,North,0,7.0,8.0,73,0.00,,,0.00,meteohub,2013-01-18 18:51:00,
2013-01-18 13:56:00,66.2,56.1,30.23,NE,45,5.0,8.0,70,0.00,,,0.00,meteohub,2013-01-18 18:56:00,
2013-01-18 14:01:00,66.2,55.8,30.23,NW,315,4.0,11.0,69,0.00,,,0.00,meteohub,2013-01-18 19:01:00,
2013-01-18 14:06:00,66.2,55.8,30.23,NE,45,7.0,11.0,69,0.00,,,0.00,meteohub,2013-01-18 19:06:00,
2013-01-18 14:11:00,66.4,55.9,30.23,SE,135,5.0,11.0,69,0.00,,,0.00,meteohub,2013-01-18 19:11:00,
2013-01-18 14:16:00,67.1,56.1,30.24,NE,45,4.0,8.0,68,0.00,,,0.00,meteohub,2013-01-18 19:16:00,
2013-01-18 14:21:00,67.3,55.9,30.24,NE,45,8.0,10.0,67,0.00,,,0.00,meteohub,2013-01-18 19:21:00,
2013-01-18 14:26:00,67.1,55.8,30.24,North,0,5.0,10.0,67,0.00,,,0.00,meteohub,2013-01-18 19:26:00,
2013-01-18 14:31:00,67.1,55.8,30.24,SE,135,4.0,10.0,67,0.00,,,0.00,meteohub,2013-01-18 19:31:00,
2013-01-18 14:36:00,67.1,55.8,30.24,SE,135,6.0,8.0,67,0.00,,,0.00,meteohub,2013-01-18 19:36:00,
2013-01-18 14:41:00,66.7,55.4,30.24,North,0,4.0,8.0,67,0.00,,,0.00,meteohub,2013-01-18 19:41:00,
2013-01-18 14:47:00,66.4,55.0,30.24,North,0,4.0,6.0,67,0.00,,,0.00,meteohub,2013-01-18 19:47:00,
2013-01-18 14:52:00,66.6,55.2,30.24,NE,45,7.0,7.0,67,0.00,,,0.00,meteohub,2013-01-18 19:52:00,
2013-01-18 14:57:00,67.1,55.8,30.25,East,90,5.0,10.0,67,0.00,,,0.00,meteohub,2013-01-18 19:57:00,
2013-01-18 15:02:00,67.6,55.9,30.24,NE,45,6.0,13.0,66,0.00,,,0.00,meteohub,2013-01-18 20:02:00,
2013-01-18 15:07:00,67.8,56.1,30.25,West,270,4.0,13.0,66,0.00,,,0.00,meteohub,2013-01-18 20:07:00,
2013-01-18 15:12:00,68.0,55.4,30.24,ENE,68,4.0,13.0,64,0.00,,,0.00,meteohub,2013-01-18 20:12:00,
2013-01-18 15:17:00,67.6,55.4,30.24,NW,315,4.0,8.0,65,0.00,,,0.00,meteohub,2013-01-18 20:17:00,
2013-01-18 15:22:00,67.3,55.6,30.25,North,0,4.0,8.0,66,0.00,,,0.00,meteohub,2013-01-18 20:22:00,
2013-01-18 15:27:00,66.7,55.4,30.25,North,0,5.0,6.0,67,0.00,,,0.00,meteohub,2013-01-18 20:27:00,
2013-01-18 15:32:00,66.6,55.2,30.25,NE,45,5.0,7.0,67,0.00,,,0.00,meteohub,2013-01-18 20:32:00,
2013-01-18 15:37:00,66.6,55.2,30.25,North,0,6.0,7.0,67,0.00,,,0.00,meteohub,2013-01-18 20:37:00,
2013-01-18 15:42:00,66.6,55.2,30.25,North,0,8.0,8.0,67,0.00,,,0.00,meteohub,2013-01-18 20:42:00,
2013-01-18 15:47:00,66.4,54.7,30.25,North,0,4.0,8.0,66,0.00,,,0.00,meteohub,2013-01-18 20:47:00,
2013-01-18 15:52:00,66.4,54.7,30.25,North,0,6.0,8.0,66,0.00,,,0.00,meteohub,2013-01-18 20:52:00,
2013-01-18 15:57:00,66.4,55.0,30.25,South,180,4.0,9.0,67,0.00,,,0.00,meteohub,2013-01-18 20:57:00,
2013-01-18 16:03:00,66.2,54.9,30.25,NE,45,4.0,9.0,67,0.00,,,0.00,meteohub,2013-01-18 21:03:00,
2013-01-18 16:08:00,65.8,55.0,30.26,SW,225,4.0,9.0,68,0.00,,,0.00,meteohub,2013-01-18 21:08:00,
2013-01-18 16:13:00,65.7,55.2,30.26,NW,315,2.0,10.0,69,0.00,,,0.00,meteohub,2013-01-18 21:13:00,
2013-01-18 16:18:00,65.5,55.0,30.26,West,270,5.0,10.0,69,0.00,,,0.00,meteohub,2013-01-18 21:18:00,
2013-01-18 16:23:00,65.3,54.9,30.26,North,0,7.0,10.0,69,0.00,,,0.00,meteohub,2013-01-18 21:23:00,
2013-01-18 16:28:00,65.3,55.2,30.26,NE,45,8.0,8.0,70,0.00,,,0.00,meteohub,2013-01-18 21:28:00,
2013-01-18 16:33:00,65.3,54.9,30.26,NW,315,6.0,8.0,69,0.00,,,0.00,meteohub,2013-01-18 21:33:00,
2013-01-18 16:38:00,65.1,54.7,30.26,East,90,3.0,8.0,69,0.00,,,0.00,meteohub,2013-01-18 21:38:00,
2013-01-18 16:43:00,65.1,55.0,30.26,North,0,4.0,8.0,70,0.00,,,0.00,meteohub,2013-01-18 21:43:00,
2013-01-18 16:48:00,64.9,54.9,30.26,North,0,4.0,8.0,70,0.00,,,0.00,meteohub,2013-01-18 21:48:00,
2013-01-18 16:53:00,64.8,54.7,30.26,NE,45,4.0,7.0,70,0.00,,,0.00,meteohub,2013-01-18 21:53:00,
2013-01-18 16:58:00,64.6,54.5,30.27,West,270,3.0,7.0,70,0.00,,,0.00,meteohub,2013-01-18 21:58:00,
2013-01-18 17:03:00,64.4,54.9,30.27,North,0,2.0,9.0,71,0.00,,,0.00,meteohub,2013-01-18 22:03:00,
2013-01-18 17:08:00,64.2,54.7,30.27,North,0,2.0,9.0,71,0.00,,,0.00,meteohub,2013-01-18 22:08:00,
2013-01-18 17:13:00,64.0,54.9,30.27,East,90,6.0,9.0,72,0.00,,,0.00,meteohub,2013-01-18 22:13:00,
2013-01-18 17:18:00,64.0,54.5,30.28,SE,135,3.0,6.0,71,0.00,,,0.00,meteohub,2013-01-18 22:18:00,
2013-01-18 17:23:00,63.9,54.3,30.27,NE,45,4.0,6.0,71,0.00,,,0.00,meteohub,2013-01-18 22:23:00,
2013-01-18 17:28:00,63.9,54.3,30.28,NW,315,7.0,7.0,71,0.00,,,0.00,meteohub,2013-01-18 22:28:00,
2013-01-18 17:33:00,63.7,54.1,30.28,NE,45,4.0,8.0,71,0.00,,,0.00,meteohub,2013-01-18 22:33:00,
2013-01-18 17:39:00,63.7,54.1,30.28,North,0,2.0,8.0,71,0.00,,,0.00,meteohub,2013-01-18 22:39:00,
2013-01-18 17:44:00,63.5,54.3,30.29,West,270,2.0,7.0,72,0.00,,,0.00,meteohub,2013-01-18 22:44:00,
2013-01-18 17:49:00,63.3,54.1,30.28,NE,45,4.0,7.0,72,0.00,,,0.00,meteohub,2013-01-18 22:49:00,
2013-01-18 17:54:00,63.3,54.1,30.29,North,0,4.0,6.0,72,0.00,,,0.00,meteohub,2013-01-18 22:54:00,
2013-01-18 17:59:00,63.3,54.1,30.28,North,0,2.0,6.0,72,0.00,,,0.00,meteohub,2013-01-18 22:59:00,
2013-01-18 18:04:00,63.1,54.0,30.29,NW,315,2.0,8.0,72,0.00,,,0.00,meteohub,2013-01-18 23:04:00,
2013-01-18 18:09:00,63.1,54.0,30.29,West,270,3.0,8.0,72,0.00,,,0.00,meteohub,2013-01-18 23:09:00,
2013-01-18 18:14:00,63.0,53.8,30.29,NNW,338,2.0,8.0,72,0.00,,,0.00,meteohub,2013-01-18 23:14:00,
2013-01-18 18:19:00,63.0,53.8,30.29,West,270,2.0,4.0,72,0.00,,,0.00,meteohub,2013-01-18 23:19:00,
2013-01-18 18:24:00,62.8,54.0,30.29,NE,45,2.0,4.0,73,0.00,,,0.00,meteohub,2013-01-18 23:24:00,
2013-01-18 18:29:00,62.8,53.6,30.29,North,0,2.0,4.0,72,0.00,,,0.00,meteohub,2013-01-18 23:29:00,
2013-01-18 18:34:00,62.6,53.4,30.29,North,0,2.0,4.0,72,0.00,,,0.00,meteohub,2013-01-18 23:34:00,
2013-01-18 18:39:00,62.6,53.4,30.30,North,0,7.0,7.0,72,0.00,,,0.00,meteohub,2013-01-18 23:39:00,
2013-01-18 18:44:00,62.4,53.6,30.30,West,270,3.0,4.0,73,0.00,,,0.00,meteohub,2013-01-18 23:44:00,
2013-01-18 18:49:00,62.2,53.4,30.30,West,270,2.0,7.0,73,0.00,,,0.00,meteohub,2013-01-18 23:49:00,
2013-01-18 18:55:00,61.9,53.4,30.30,West,270,3.0,7.0,74,0.00,,,0.00,meteohub,2013-01-18 23:55:00,
2013-01-18 19:00:00,61.5,53.2,30.30,North,0,3.0,5.0,74,0.00,,,0.00,meteohub,2013-01-19 00:00:00,
2013-01-18 19:05:00,61.3,53.4,30.30,SW,225,2.0,5.0,75,0.00,,,0.00,meteohub,2013-01-19 00:05:00,
2013-01-18 19:10:00,61.2,53.2,30.30,West,270,3.0,3.0,75,0.00,,,0.00,meteohub,2013-01-19 00:10:00,
2013-01-18 19:15:00,60.8,53.2,30.31,SW,225,2.0,5.0,76,0.00,,,0.00,meteohub,2013-01-19 00:15:00,
2013-01-18 19:20:00,60.6,53.4,30.31,SW,225,1.0,5.0,77,0.00,,,0.00,meteohub,2013-01-19 00:20:00,
2013-01-18 19:25:00,60.4,53.6,30.31,NE,45,2.0,5.0,78,0.00,,,0.00,meteohub,2013-01-19 00:25:00,
2013-01-18 19:30:00,60.3,53.4,30.31,North,0,2.0,3.0,78,0.00,,,0.00,meteohub,2013-01-19 00:30:00,
2013-01-18 19:35:00,60.1,53.6,30.31,North,0,4.0,4.0,79,0.00,,,0.00,meteohub,2013-01-19 00:35:00,
2013-01-18 19:40:00,60.1,53.6,30.31,NE,45,3.0,4.0,79,0.00,,,0.00,meteohub,2013-01-19 00:40:00,
2013-01-18 19:45:00,60.1,53.6,30.31,NW,315,2.0,4.0,79,0.00,,,0.00,meteohub,2013-01-19 00:45:00,
2013-01-18 19:50:00,59.9,53.4,30.31,NW,315,2.0,4.0,79,0.00,,,0.00,meteohub,2013-01-19 00:50:00,
2013-01-18 19:55:00,59.9,53.8,30.31,North,0,2.0,3.0,80,0.00,,,0.00,meteohub,2013-01-19 00:55:00,
2013-01-18 20:01:00,59.7,53.6,30.30,North,0,2.0,3.0,80,0.00,,,0.00,meteohub,2013-01-19 01:01:00,
2013-01-18 20:06:00,59.5,53.4,30.31,NW,315,3.0,3.0,80,0.00,,,0.00,meteohub,2013-01-19 01:06:00,
2013-01-18 20:11:00,59.4,53.2,30.31,North,0,2.0,3.0,80,0.00,,,0.00,meteohub,2013-01-19 01:11:00,
2013-01-18 20:16:00,59.2,53.1,30.31,West,270,2.0,3.0,80,0.00,,,0.00,meteohub,2013-01-19 01:16:00,
2013-01-18 20:21:00,59.2,53.4,30.31,NW,315,2.0,3.0,81,0.00,,,0.00,meteohub,2013-01-19 01:21:00,
2013-01-18 20:26:00,59.2,53.4,30.31,North,0,2.0,3.0,81,0.00,,,0.00,meteohub,2013-01-19 01:26:00,
2013-01-18 20:31:00,59.2,53.4,30.31,West,270,3.0,3.0,81,0.00,,,0.00,meteohub,2013-01-19 01:31:00,
2013-01-18 20:36:00,59.2,53.4,30.31,West,270,3.0,3.0,81,0.00,,,0.00,meteohub,2013-01-19 01:36:00,
2013-01-18 20:41:00,59.0,53.2,30.31,NW,315,2.0,3.0,81,0.00,,,0.00,meteohub,2013-01-19 01:41:00,
2013-01-18 20:47:00,58.8,53.4,30.31,NW,315,0.0,3.0,82,0.00,,,0.00,meteohub,2013-01-19 01:47:00,
2013-01-18 20:52:00,58.5,53.1,30.31,North,0,2.0,3.0,82,0.00,,,0.00,meteohub,2013-01-19 01:52:00,
2013-01-18 20:57:00,58.3,53.1,30.31,East,90,2.0,3.0,83,0.00,,,0.00,meteohub,2013-01-19 01:57:00,
2013-01-18 21:02:00,58.1,52.9,30.31,North,0,1.0,3.0,83,0.00,,,0.00,meteohub,2013-01-19 02:02:00,
2013-01-18 21:07:00,58.1,52.9,30.31,North,0,1.0,3.0,83,0.00,,,0.00,meteohub,2013-01-19 02:07:00,
2013-01-18 21:12:00,57.9,53.1,30.31,North,0,1.0,3.0,84,0.00,,,0.00,meteohub,2013-01-19 02:12:00,
2013-01-18 21:17:00,57.7,52.9,30.31,North,0,1.0,2.0,84,0.00,,,0.00,meteohub,2013-01-19 02:17:00,
2013-01-18 21:22:00,57.6,52.7,30.31,West,270,1.0,2.0,84,0.00,,,0.00,meteohub,2013-01-19 02:22:00,
2013-01-18 21:27:00,57.6,52.7,30.31,NW,315,2.0,2.0,84,0.00,,,0.00,meteohub,2013-01-19 02:27:00,
2013-01-18 21:32:00,57.6,52.7,30.31,NW,315,2.0,2.0,84,0.00,,,0.00,meteohub,2013-01-19 02:32:00,
2013-01-18 21:37:00,57.6,52.7,30.31,NW,315,1.0,2.0,84,0.00,,,0.00,meteohub,2013-01-19 02:37:00,
2013-01-18 21:43:00,57.4,52.5,30.31,NW,315,2.0,2.0,84,0.00,,,0.00,meteohub,2013-01-19 02:43:00,
2013-01-18 21:48:00,57.4,52.5,30.31,NW,315,2.0,2.0,84,0.00,,,0.00,meteohub,2013-01-19 02:48:00,
2013-01-18 21:53:00,57.4,52.5,30.31,NW,315,3.0,3.0,84,0.00,,,0.00,meteohub,2013-01-19 02:53:00,
2013-01-18 21:58:00,57.2,52.3,30.31,North,0,2.0,3.0,84,0.00,,,0.00,meteohub,2013-01-19 02:58:00,
2013-01-18 22:03:00,56.8,52.3,30.31,North,0,2.0,3.0,85,0.00,,,0.00,meteohub,2013-01-19 03:03:00,
2013-01-18 22:08:00,56.7,52.2,30.31,North,0,1.0,3.0,85,0.00,,,0.00,meteohub,2013-01-19 03:08:00,
2013-01-18 22:13:00,56.5,52.0,30.31,NW,315,0.0,2.0,85,0.00,,,0.00,meteohub,2013-01-19 03:13:00,
2013-01-18 22:18:00,56.5,52.0,30.31,SW,225,0.0,2.0,85,0.00,,,0.00,meteohub,2013-01-19 03:18:00,
2013-01-18 22:23:00,56.3,51.8,30.30,NW,315,1.0,2.0,85,0.00,,,0.00,meteohub,2013-01-19 03:23:00,
2013-01-18 22:29:00,56.3,52.2,30.30,North,0,2.0,3.0,86,0.00,,,0.00,meteohub,2013-01-19 03:29:00,
2013-01-18 22:34:00,56.3,52.2,30.30,West,270,1.0,3.0,86,0.00,,,0.00,meteohub,2013-01-19 03:34:00,
2013-01-18 22:39:00,56.1,52.0,30.30,North,0,3.0,3.0,86,0.00,,,0.00,meteohub,2013-01-19 03:39:00,
2013-01-18 22:44:00,56.1,52.0,30.30,North,0,2.0,4.0,86,0.00,,,0.00,meteohub,2013-01-19 03:44:00,
2013-01-18 22:49:00,55.9,51.8,30.30,SW,225,1.0,4.0,86,0.00,,,0.00,meteohub,2013-01-19 03:49:00,
2013-01-18 22:54:00,55.8,51.6,30.30,North,0,1.0,4.0,86,0.00,,,0.00,meteohub,2013-01-19 03:54:00,
2013-01-18 22:59:00,55.6,51.4,30.30,South,180,0.0,2.0,86,0.00,,,0.00,meteohub,2013-01-19 03:59:00,
2013-01-18 23:05:00,55.4,51.3,30.30,North,0,2.0,2.0,86,0.00,,,0.00,meteohub,2013-01-19 04:05:00,
2013-01-18 23:10:00,55.0,50.9,30.30,NW,315,1.0,2.0,86,0.00,,,0.00,meteohub,2013-01-19 04:10:00,
2013-01-18 23:15:00,55.0,50.9,30.30,North,0,1.0,2.0,86,0.00,,,0.00,meteohub,2013-01-19 04:15:00,
2013-01-18 23:20:00,55.0,51.3,30.29,NW,315,2.0,2.0,87,0.00,,,0.00,meteohub,2013-01-19 04:20:00,
2013-01-18 23:25:00,55.0,51.3,30.29,West,270,1.0,2.0,87,0.00,,,0.00,meteohub,2013-01-19 04:25:00,
2013-01-18 23:30:00,55.0,51.3,30.29,West,270,2.0,2.0,87,0.00,,,0.00,meteohub,2013-01-19 04:30:00,
2013-01-18 23:36:00,55.0,51.3,30.29,North,0,2.0,2.0,87,0.00,,,0.00,meteohub,2013-01-19 04:36:00,
2013-01-18 23:41:00,54.9,51.1,30.29,NW,315,2.0,2.0,87,0.00,,,0.00,meteohub,2013-01-19 04:41:00,
2013-01-18 23:46:00,54.9,51.1,30.29,North,0,1.0,2.0,87,0.00,,,0.00,meteohub,2013-01-19 04:46:00,
2013-01-18 23:51:00,54.9,51.4,30.28,SW,225,2.0,2.0,88,0.00,,,0.00,meteohub,2013-01-19 04:51:00,
2013-01-18 23:56:00,54.9,51.4,30.28,West,270,1.0,2.0,88,0.00,,,0.00,meteohub,2013-01-19 04:56:00,